sensor_id;sensor_type;location;lat;lon;timestamp;P1;durP1;ratioP1;P2;durP2;ratioP2
16385;SDS011;8302;51.154;4.456;2023-12-07T00:00:50;5.10;;;2.30;;
16385;SDS011;8302;51.154;4.456;2023-12-07T00:03:17;5.78;;;2.50;;
16385;SDS011;8302;51.154;4.456;2023-12-07T00:05:45;3.88;;;2.38;;
16385;SDS011;8302;51.154;4.456;2023-12-07T00:08:13;4.35;;;2.45;;
16385;SDS011;8302;51.154;4.456;2023-12-07T00:10:42;5.88;;;3.08;;
16385;SDS011;8302;51.154;4.456;2023-12-07T00:13:10;3.35;;;2.05;;
16385;SDS011;8302;51.154;4.456;2023-12-07T00:15:38;3.33;;;2.20;;
16385;SDS011;8302;51.154;4.456;2023-12-07T00:18:05;2.55;;;2.20;;
16385;SDS011;8302;51.154;4.456;2023-12-07T00:20:33;2.33;;;1.98;;
16385;SDS011;8302;51.154;4.456;2023-12-07T00:23:01;4.13;;;2.67;;
16385;SDS011;8302;51.154;4.456;2023-12-07T00:25:29;4.75;;;2.53;;
16385;SDS011;8302;51.154;4.456;2023-12-07T00:27:58;3.00;;;2.38;;
16385;SDS011;8302;51.154;4.456;2023-12-07T00:30:26;4.85;;;2.78;;
16385;SDS011;8302;51.154;4.456;2023-12-07T00:32:54;3.05;;;2.33;;
16385;SDS011;8302;51.154;4.456;2023-12-07T00:35:22;5.60;;;3.00;;
16385;SDS011;8302;51.154;4.456;2023-12-07T00:37:49;4.50;;;2.83;;
16385;SDS011;8302;51.154;4.456;2023-12-07T00:40:17;4.28;;;2.70;;
16385;SDS011;8302;51.154;4.456;2023-12-07T00:42:45;4.38;;;2.63;;
16385;SDS011;8302;51.154;4.456;2023-12-07T00:45:15;3.95;;;2.60;;
16385;SDS011;8302;51.154;4.456;2023-12-07T00:47:42;4.10;;;2.33;;
16385;SDS011;8302;51.154;4.456;2023-12-07T00:50:11;2.92;;;2.47;;
16385;SDS011;8302;51.154;4.456;2023-12-07T00:52:39;4.90;;;2.50;;
16385;SDS011;8302;51.154;4.456;2023-12-07T00:55:08;4.57;;;2.40;;
16385;SDS011;8302;51.154;4.456;2023-12-07T00:57:38;3.28;;;2.42;;
16385;SDS011;8302;51.154;4.456;2023-12-07T01:00:06;4.00;;;2.65;;
16385;SDS011;8302;51.154;4.456;2023-12-07T01:02:35;4.35;;;2.67;;
16385;SDS011;8302;51.154;4.456;2023-12-07T01:05:03;3.60;;;2.70;;
16385;SDS011;8302;51.154;4.456;2023-12-07T01:07:32;6.32;;;3.20;;
16385;SDS011;8302;51.154;4.456;2023-12-07T01:10:00;4.80;;;2.90;;
16385;SDS011;8302;51.154;4.456;2023-12-07T01:12:27;6.47;;;3.25;;
16385;SDS011;8302;51.154;4.456;2023-12-07T01:14:55;5.63;;;2.72;;
16385;SDS011;8302;51.154;4.456;2023-12-07T01:17:23;4.78;;;2.67;;
16385;SDS011;8302;51.154;4.456;2023-12-07T01:19:52;6.82;;;3.10;;
16385;SDS011;8302;51.154;4.456;2023-12-07T01:22:20;7.03;;;3.63;;
16385;SDS011;8302;51.154;4.456;2023-12-07T01:24:48;7.07;;;3.05;;
16385;SDS011;8302;51.154;4.456;2023-12-07T01:27:16;5.07;;;3.20;;
16385;SDS011;8302;51.154;4.456;2023-12-07T01:29:44;4.70;;;3.03;;
16385;SDS011;8302;51.154;4.456;2023-12-07T01:32:12;5.68;;;3.45;;
16385;SDS011;8302;51.154;4.456;2023-12-07T01:34:40;7.22;;;3.22;;
16385;SDS011;8302;51.154;4.456;2023-12-07T01:37:10;9.63;;;3.80;;
16385;SDS011;8302;51.154;4.456;2023-12-07T01:39:38;5.03;;;3.58;;
16385;SDS011;8302;51.154;4.456;2023-12-07T01:42:06;6.28;;;3.55;;
16385;SDS011;8302;51.154;4.456;2023-12-07T01:44:35;6.63;;;3.40;;
16385;SDS011;8302;51.154;4.456;2023-12-07T01:47:03;6.70;;;3.25;;
16385;SDS011;8302;51.154;4.456;2023-12-07T01:49:31;5.93;;;3.30;;
16385;SDS011;8302;51.154;4.456;2023-12-07T01:51:59;6.50;;;3.20;;
16385;SDS011;8302;51.154;4.456;2023-12-07T01:54:29;7.25;;;3.75;;
16385;SDS011;8302;51.154;4.456;2023-12-07T01:56:57;6.43;;;3.63;;
16385;SDS011;8302;51.154;4.456;2023-12-07T01:59:25;8.45;;;3.35;;
16385;SDS011;8302;51.154;4.456;2023-12-07T02:01:52;7.15;;;3.30;;
16385;SDS011;8302;51.154;4.456;2023-12-07T02:04:20;9.77;;;4.15;;
16385;SDS011;8302;51.154;4.456;2023-12-07T02:06:48;6.00;;;3.90;;
16385;SDS011;8302;51.154;4.456;2023-12-07T02:09:16;7.75;;;4.03;;
16385;SDS011;8302;51.154;4.456;2023-12-07T02:11:45;8.00;;;4.13;;
16385;SDS011;8302;51.154;4.456;2023-12-07T02:14:13;8.52;;;3.33;;
16385;SDS011;8302;51.154;4.456;2023-12-07T02:16:42;8.52;;;3.65;;
16385;SDS011;8302;51.154;4.456;2023-12-07T02:19:15;6.88;;;3.42;;
16385;SDS011;8302;51.154;4.456;2023-12-07T02:21:47;8.40;;;3.80;;
16385;SDS011;8302;51.154;4.456;2023-12-07T02:24:21;6.53;;;3.05;;
16385;SDS011;8302;51.154;4.456;2023-12-07T02:26:50;7.97;;;4.10;;
16385;SDS011;8302;51.154;4.456;2023-12-07T02:29:18;8.02;;;4.10;;
16385;SDS011;8302;51.154;4.456;2023-12-07T02:31:46;7.95;;;4.20;;
16385;SDS011;8302;51.154;4.456;2023-12-07T02:34:14;7.65;;;4.35;;
16385;SDS011;8302;51.154;4.456;2023-12-07T02:36:42;6.07;;;3.63;;
16385;SDS011;8302;51.154;4.456;2023-12-07T02:39:11;6.22;;;3.45;;
16385;SDS011;8302;51.154;4.456;2023-12-07T02:41:40;6.78;;;3.55;;
16385;SDS011;8302;51.154;4.456;2023-12-07T02:44:10;7.30;;;3.72;;
16385;SDS011;8302;51.154;4.456;2023-12-07T02:46:38;9.02;;;4.50;;
16385;SDS011;8302;51.154;4.456;2023-12-07T02:49:06;8.80;;;4.40;;
16385;SDS011;8302;51.154;4.456;2023-12-07T02:51:34;6.50;;;3.38;;
16385;SDS011;8302;51.154;4.456;2023-12-07T02:54:01;8.23;;;3.58;;
16385;SDS011;8302;51.154;4.456;2023-12-07T02:56:29;5.85;;;3.17;;
16385;SDS011;8302;51.154;4.456;2023-12-07T02:58:57;9.55;;;4.05;;
16385;SDS011;8302;51.154;4.456;2023-12-07T03:01:26;8.43;;;3.65;;
16385;SDS011;8302;51.154;4.456;2023-12-07T03:03:54;7.88;;;3.63;;
16385;SDS011;8302;51.154;4.456;2023-12-07T03:06:22;5.63;;;3.33;;
16385;SDS011;8302;51.154;4.456;2023-12-07T03:08:49;7.70;;;4.10;;
16385;SDS011;8302;51.154;4.456;2023-12-07T03:11:17;5.32;;;3.35;;
16385;SDS011;8302;51.154;4.456;2023-12-07T03:13:45;5.75;;;3.15;;
16385;SDS011;8302;51.154;4.456;2023-12-07T03:16:13;8.18;;;4.35;;
16385;SDS011;8302;51.154;4.456;2023-12-07T03:18:42;8.40;;;4.13;;
16385;SDS011;8302;51.154;4.456;2023-12-07T03:21:10;6.93;;;3.90;;
16385;SDS011;8302;51.154;4.456;2023-12-07T03:23:37;6.90;;;3.78;;
16385;SDS011;8302;51.154;4.456;2023-12-07T03:26:05;8.60;;;4.13;;
16385;SDS011;8302;51.154;4.456;2023-12-07T03:28:33;6.65;;;3.70;;
16385;SDS011;8302;51.154;4.456;2023-12-07T03:31:00;9.68;;;4.35;;
16385;SDS011;8302;51.154;4.456;2023-12-07T03:33:28;10.00;;;4.10;;
16385;SDS011;8302;51.154;4.456;2023-12-07T03:35:58;8.75;;;3.63;;
16385;SDS011;8302;51.154;4.456;2023-12-07T03:38:25;7.60;;;3.90;;
16385;SDS011;8302;51.154;4.456;2023-12-07T03:40:53;5.90;;;3.85;;
16385;SDS011;8302;51.154;4.456;2023-12-07T03:43:21;8.10;;;4.13;;
16385;SDS011;8302;51.154;4.456;2023-12-07T03:45:49;6.15;;;4.07;;
16385;SDS011;8302;51.154;4.456;2023-12-07T03:48:16;9.75;;;3.92;;
16385;SDS011;8302;51.154;4.456;2023-12-07T03:50:44;7.13;;;3.55;;
16385;SDS011;8302;51.154;4.456;2023-12-07T03:53:13;7.72;;;4.10;;
16385;SDS011;8302;51.154;4.456;2023-12-07T03:55:41;7.25;;;3.75;;
16385;SDS011;8302;51.154;4.456;2023-12-07T03:58:09;7.68;;;4.20;;
16385;SDS011;8302;51.154;4.456;2023-12-07T04:00:36;9.35;;;4.32;;
16385;SDS011;8302;51.154;4.456;2023-12-07T04:03:04;10.07;;;4.22;;
16385;SDS011;8302;51.154;4.456;2023-12-07T04:05:32;6.35;;;3.40;;
16385;SDS011;8302;51.154;4.456;2023-12-07T04:08:00;8.18;;;4.05;;
16385;SDS011;8302;51.154;4.456;2023-12-07T04:10:29;6.85;;;3.85;;
16385;SDS011;8302;51.154;4.456;2023-12-07T04:12:57;9.90;;;3.70;;
16385;SDS011;8302;51.154;4.456;2023-12-07T04:15:25;9.63;;;4.22;;
16385;SDS011;8302;51.154;4.456;2023-12-07T04:17:53;7.15;;;3.47;;
16385;SDS011;8302;51.154;4.456;2023-12-07T04:20:20;7.28;;;3.60;;
16385;SDS011;8302;51.154;4.456;2023-12-07T04:22:48;8.98;;;4.13;;
16385;SDS011;8302;51.154;4.456;2023-12-07T04:25:16;7.32;;;3.88;;
16385;SDS011;8302;51.154;4.456;2023-12-07T04:27:45;9.32;;;3.42;;
16385;SDS011;8302;51.154;4.456;2023-12-07T04:30:13;7.55;;;3.63;;
16385;SDS011;8302;51.154;4.456;2023-12-07T04:32:41;7.43;;;4.10;;
16385;SDS011;8302;51.154;4.456;2023-12-07T04:35:08;8.82;;;4.38;;
16385;SDS011;8302;51.154;4.456;2023-12-07T04:37:36;7.82;;;3.38;;
16385;SDS011;8302;51.154;4.456;2023-12-07T04:40:05;5.65;;;3.35;;
16385;SDS011;8302;51.154;4.456;2023-12-07T04:42:33;8.82;;;4.05;;
16385;SDS011;8302;51.154;4.456;2023-12-07T04:45:02;6.88;;;3.58;;
16385;SDS011;8302;51.154;4.456;2023-12-07T04:47:30;6.85;;;3.70;;
16385;SDS011;8302;51.154;4.456;2023-12-07T04:49:59;4.47;;;2.90;;
16385;SDS011;8302;51.154;4.456;2023-12-07T04:52:27;6.75;;;3.50;;
16385;SDS011;8302;51.154;4.456;2023-12-07T04:54:55;8.27;;;3.63;;
16385;SDS011;8302;51.154;4.456;2023-12-07T04:57:22;6.72;;;3.47;;
16385;SDS011;8302;51.154;4.456;2023-12-07T04:59:50;8.70;;;3.88;;
16385;SDS011;8302;51.154;4.456;2023-12-07T05:02:20;10.20;;;2.80;;
16385;SDS011;8302;51.154;4.456;2023-12-07T05:04:48;5.05;;;2.72;;
16385;SDS011;8302;51.154;4.456;2023-12-07T05:07:16;6.22;;;3.72;;
16385;SDS011;8302;51.154;4.456;2023-12-07T05:09:43;4.78;;;2.95;;
16385;SDS011;8302;51.154;4.456;2023-12-07T05:12:12;6.18;;;3.05;;
16385;SDS011;8302;51.154;4.456;2023-12-07T05:14:39;7.28;;;3.30;;
16385;SDS011;8302;51.154;4.456;2023-12-07T05:17:07;6.10;;;2.90;;
16385;SDS011;8302;51.154;4.456;2023-12-07T05:19:37;6.97;;;3.67;;
16385;SDS011;8302;51.154;4.456;2023-12-07T05:22:04;8.85;;;3.20;;
16385;SDS011;8302;51.154;4.456;2023-12-07T05:24:32;6.00;;;3.15;;
16385;SDS011;8302;51.154;4.456;2023-12-07T05:27:01;6.20;;;3.28;;
16385;SDS011;8302;51.154;4.456;2023-12-07T05:29:30;5.05;;;3.00;;
16385;SDS011;8302;51.154;4.456;2023-12-07T05:31:58;7.18;;;2.97;;
16385;SDS011;8302;51.154;4.456;2023-12-07T05:34:25;6.18;;;3.10;;
16385;SDS011;8302;51.154;4.456;2023-12-07T05:36:55;6.32;;;3.40;;
16385;SDS011;8302;51.154;4.456;2023-12-07T05:39:23;4.00;;;3.08;;
16385;SDS011;8302;51.154;4.456;2023-12-07T05:41:50;4.60;;;2.92;;
16385;SDS011;8302;51.154;4.456;2023-12-07T05:44:18;7.85;;;3.42;;
16385;SDS011;8302;51.154;4.456;2023-12-07T05:46:48;5.22;;;2.88;;
16385;SDS011;8302;51.154;4.456;2023-12-07T05:49:16;6.05;;;3.05;;
16385;SDS011;8302;51.154;4.456;2023-12-07T05:51:44;6.53;;;3.03;;
16385;SDS011;8302;51.154;4.456;2023-12-07T05:54:13;5.47;;;3.05;;
16385;SDS011;8302;51.154;4.456;2023-12-07T05:56:41;5.80;;;2.78;;
16385;SDS011;8302;51.154;4.456;2023-12-07T05:59:09;6.70;;;3.53;;
16385;SDS011;8302;51.154;4.456;2023-12-07T06:01:37;6.85;;;2.63;;
16385;SDS011;8302;51.154;4.456;2023-12-07T06:04:07;6.53;;;2.80;;
16385;SDS011;8302;51.154;4.456;2023-12-07T06:06:35;5.40;;;3.13;;
16385;SDS011;8302;51.154;4.456;2023-12-07T06:09:03;5.13;;;2.95;;
16385;SDS011;8302;51.154;4.456;2023-12-07T06:11:33;6.72;;;3.25;;
16385;SDS011;8302;51.154;4.456;2023-12-07T06:14:01;5.95;;;2.63;;
16385;SDS011;8302;51.154;4.456;2023-12-07T06:16:29;4.43;;;3.00;;
16385;SDS011;8302;51.154;4.456;2023-12-07T06:18:57;5.07;;;2.92;;
16385;SDS011;8302;51.154;4.456;2023-12-07T06:21:25;5.13;;;3.00;;
16385;SDS011;8302;51.154;4.456;2023-12-07T06:23:54;2.97;;;2.20;;
16385;SDS011;8302;51.154;4.456;2023-12-07T06:26:22;5.05;;;2.55;;
16385;SDS011;8302;51.154;4.456;2023-12-07T06:28:51;4.65;;;2.92;;
16385;SDS011;8302;51.154;4.456;2023-12-07T06:31:19;4.28;;;2.47;;
16385;SDS011;8302;51.154;4.456;2023-12-07T06:33:48;4.15;;;2.65;;
16385;SDS011;8302;51.154;4.456;2023-12-07T06:36:19;4.03;;;2.50;;
16385;SDS011;8302;51.154;4.456;2023-12-07T06:38:47;5.88;;;2.83;;
16385;SDS011;8302;51.154;4.456;2023-12-07T06:41:16;3.97;;;2.58;;
16385;SDS011;8302;51.154;4.456;2023-12-07T06:43:44;5.82;;;2.95;;
16385;SDS011;8302;51.154;4.456;2023-12-07T06:46:13;4.38;;;2.53;;
16385;SDS011;8302;51.154;4.456;2023-12-07T06:48:43;2.70;;;2.17;;
16385;SDS011;8302;51.154;4.456;2023-12-07T06:51:11;4.18;;;2.58;;
16385;SDS011;8302;51.154;4.456;2023-12-07T06:53:40;3.40;;;2.22;;
16385;SDS011;8302;51.154;4.456;2023-12-07T06:56:08;4.20;;;2.50;;
16385;SDS011;8302;51.154;4.456;2023-12-07T06:58:36;4.78;;;2.65;;
16385;SDS011;8302;51.154;4.456;2023-12-07T07:01:04;2.75;;;2.33;;
16385;SDS011;8302;51.154;4.456;2023-12-07T07:03:33;6.10;;;2.33;;
16385;SDS011;8302;51.154;4.456;2023-12-07T07:06:01;2.90;;;2.47;;
16385;SDS011;8302;51.154;4.456;2023-12-07T07:08:29;6.00;;;3.42;;
16385;SDS011;8302;51.154;4.456;2023-12-07T07:10:57;5.63;;;2.67;;
16385;SDS011;8302;51.154;4.456;2023-12-07T07:13:25;4.10;;;2.25;;
16385;SDS011;8302;51.154;4.456;2023-12-07T07:15:53;3.33;;;2.42;;
16385;SDS011;8302;51.154;4.456;2023-12-07T07:18:21;5.90;;;2.88;;
16385;SDS011;8302;51.154;4.456;2023-12-07T07:20:52;3.47;;;2.38;;
16385;SDS011;8302;51.154;4.456;2023-12-07T07:23:19;4.07;;;2.50;;
16385;SDS011;8302;51.154;4.456;2023-12-07T07:25:47;4.30;;;2.30;;
16385;SDS011;8302;51.154;4.456;2023-12-07T07:28:15;2.92;;;2.35;;
16385;SDS011;8302;51.154;4.456;2023-12-07T07:30:43;8.93;;;2.75;;
16385;SDS011;8302;51.154;4.456;2023-12-07T07:33:10;3.35;;;2.22;;
16385;SDS011;8302;51.154;4.456;2023-12-07T07:35:38;6.97;;;2.65;;
16385;SDS011;8302;51.154;4.456;2023-12-07T07:38:07;8.35;;;2.55;;
16385;SDS011;8302;51.154;4.456;2023-12-07T07:40:35;4.13;;;2.30;;
16385;SDS011;8302;51.154;4.456;2023-12-07T07:43:03;4.38;;;2.45;;
16385;SDS011;8302;51.154;4.456;2023-12-07T07:45:31;3.72;;;2.17;;
16385;SDS011;8302;51.154;4.456;2023-12-07T07:47:59;5.53;;;3.10;;
16385;SDS011;8302;51.154;4.456;2023-12-07T07:50:27;3.63;;;2.88;;
16385;SDS011;8302;51.154;4.456;2023-12-07T07:52:55;4.50;;;2.45;;
16385;SDS011;8302;51.154;4.456;2023-12-07T07:55:24;5.88;;;2.33;;
16385;SDS011;8302;51.154;4.456;2023-12-07T07:57:51;3.58;;;2.30;;
16385;SDS011;8302;51.154;4.456;2023-12-07T08:00:20;4.38;;;2.33;;
16385;SDS011;8302;51.154;4.456;2023-12-07T08:02:50;10.35;;;3.92;;
16385;SDS011;8302;51.154;4.456;2023-12-07T08:05:18;7.28;;;3.67;;
16385;SDS011;8302;51.154;4.456;2023-12-07T08:07:46;9.00;;;4.03;;
16385;SDS011;8302;51.154;4.456;2023-12-07T08:10:14;7.97;;;4.60;;
16385;SDS011;8302;51.154;4.456;2023-12-07T08:12:43;7.85;;;3.85;;
16385;SDS011;8302;51.154;4.456;2023-12-07T08:15:10;10.73;;;4.32;;
16385;SDS011;8302;51.154;4.456;2023-12-07T08:17:39;7.53;;;3.53;;
16385;SDS011;8302;51.154;4.456;2023-12-07T08:20:07;9.65;;;3.85;;
16385;SDS011;8302;51.154;4.456;2023-12-07T08:22:36;8.50;;;4.15;;
16385;SDS011;8302;51.154;4.456;2023-12-07T08:25:05;9.00;;;4.68;;
16385;SDS011;8302;51.154;4.456;2023-12-07T08:27:37;5.93;;;3.80;;
16385;SDS011;8302;51.154;4.456;2023-12-07T08:30:07;5.88;;;3.83;;
16385;SDS011;8302;51.154;4.456;2023-12-07T08:32:36;4.50;;;3.78;;
16385;SDS011;8302;51.154;4.456;2023-12-07T08:35:04;8.63;;;4.20;;
16385;SDS011;8302;51.154;4.456;2023-12-07T08:37:33;8.35;;;3.80;;
16385;SDS011;8302;51.154;4.456;2023-12-07T08:40:00;6.28;;;3.80;;
16385;SDS011;8302;51.154;4.456;2023-12-07T08:42:28;7.55;;;3.88;;
16385;SDS011;8302;51.154;4.456;2023-12-07T08:44:58;7.53;;;4.07;;
16385;SDS011;8302;51.154;4.456;2023-12-07T08:47:27;8.45;;;3.28;;
16385;SDS011;8302;51.154;4.456;2023-12-07T08:49:56;6.60;;;3.10;;
16385;SDS011;8302;51.154;4.456;2023-12-07T08:52:24;5.20;;;2.55;;
16385;SDS011;8302;51.154;4.456;2023-12-07T08:55:07;7.07;;;3.60;;
16385;SDS011;8302;51.154;4.456;2023-12-07T08:57:35;5.93;;;3.28;;
16385;SDS011;8302;51.154;4.456;2023-12-07T09:00:04;7.13;;;3.35;;
16385;SDS011;8302;51.154;4.456;2023-12-07T09:02:33;7.40;;;3.83;;
16385;SDS011;8302;51.154;4.456;2023-12-07T09:05:13;5.25;;;3.30;;
16385;SDS011;8302;51.154;4.456;2023-12-07T09:07:41;5.63;;;3.63;;
16385;SDS011;8302;51.154;4.456;2023-12-07T09:10:09;5.05;;;3.33;;
16385;SDS011;8302;51.154;4.456;2023-12-07T09:12:37;4.43;;;3.03;;
16385;SDS011;8302;51.154;4.456;2023-12-07T09:15:06;5.82;;;3.58;;
16385;SDS011;8302;51.154;4.456;2023-12-07T09:17:35;5.47;;;3.17;;
16385;SDS011;8302;51.154;4.456;2023-12-07T09:20:04;3.50;;;2.58;;
16385;SDS011;8302;51.154;4.456;2023-12-07T09:22:31;5.05;;;2.92;;
16385;SDS011;8302;51.154;4.456;2023-12-07T09:25:03;5.28;;;3.80;;
16385;SDS011;8302;51.154;4.456;2023-12-07T09:27:31;6.40;;;3.28;;
16385;SDS011;8302;51.154;4.456;2023-12-07T09:30:00;3.55;;;3.17;;
16385;SDS011;8302;51.154;4.456;2023-12-07T09:32:27;4.55;;;3.67;;
16385;SDS011;8302;51.154;4.456;2023-12-07T09:35:04;6.68;;;3.38;;
16385;SDS011;8302;51.154;4.456;2023-12-07T09:37:42;5.50;;;3.17;;
16385;SDS011;8302;51.154;4.456;2023-12-07T09:40:14;6.57;;;3.40;;
16385;SDS011;8302;51.154;4.456;2023-12-07T09:42:42;3.67;;;2.72;;
16385;SDS011;8302;51.154;4.456;2023-12-07T09:45:10;5.82;;;3.28;;
16385;SDS011;8302;51.154;4.456;2023-12-07T09:47:38;5.22;;;2.95;;
16385;SDS011;8302;51.154;4.456;2023-12-07T09:50:07;5.15;;;3.70;;
16385;SDS011;8302;51.154;4.456;2023-12-07T09:52:35;5.00;;;2.80;;
16385;SDS011;8302;51.154;4.456;2023-12-07T09:55:06;4.78;;;3.30;;
16385;SDS011;8302;51.154;4.456;2023-12-07T09:57:34;5.57;;;2.95;;
16385;SDS011;8302;51.154;4.456;2023-12-07T10:00:02;4.45;;;3.00;;
16385;SDS011;8302;51.154;4.456;2023-12-07T10:02:32;4.55;;;3.22;;
16385;SDS011;8302;51.154;4.456;2023-12-07T10:05:03;5.00;;;3.20;;
16385;SDS011;8302;51.154;4.456;2023-12-07T10:07:32;5.35;;;2.88;;
16385;SDS011;8302;51.154;4.456;2023-12-07T10:10:02;5.25;;;3.22;;
16385;SDS011;8302;51.154;4.456;2023-12-07T10:12:31;3.70;;;2.97;;
16385;SDS011;8302;51.154;4.456;2023-12-07T10:15:00;4.43;;;2.78;;
16385;SDS011;8302;51.154;4.456;2023-12-07T10:17:42;4.43;;;2.83;;
16385;SDS011;8302;51.154;4.456;2023-12-07T10:20:11;4.55;;;3.03;;
16385;SDS011;8302;51.154;4.456;2023-12-07T10:22:39;4.70;;;3.25;;
16385;SDS011;8302;51.154;4.456;2023-12-07T10:25:09;4.60;;;2.78;;
16385;SDS011;8302;51.154;4.456;2023-12-07T10:27:38;6.05;;;3.38;;
16385;SDS011;8302;51.154;4.456;2023-12-07T10:30:08;5.20;;;3.22;;
16385;SDS011;8302;51.154;4.456;2023-12-07T10:32:36;4.93;;;2.90;;
16385;SDS011;8302;51.154;4.456;2023-12-07T10:35:06;3.55;;;2.67;;
16385;SDS011;8302;51.154;4.456;2023-12-07T10:37:34;4.07;;;2.47;;
16385;SDS011;8302;51.154;4.456;2023-12-07T10:40:02;4.47;;;2.80;;
16385;SDS011;8302;51.154;4.456;2023-12-07T10:42:32;5.55;;;3.00;;
16385;SDS011;8302;51.154;4.456;2023-12-07T10:45:06;3.63;;;2.53;;
16385;SDS011;8302;51.154;4.456;2023-12-07T10:47:36;7.07;;;3.10;;
16385;SDS011;8302;51.154;4.456;2023-12-07T10:50:05;4.68;;;2.65;;
16385;SDS011;8302;51.154;4.456;2023-12-07T10:52:39;2.75;;;2.55;;
16385;SDS011;8302;51.154;4.456;2023-12-07T10:55:13;4.40;;;3.17;;
16385;SDS011;8302;51.154;4.456;2023-12-07T10:57:43;5.28;;;2.97;;
16385;SDS011;8302;51.154;4.456;2023-12-07T11:00:14;4.32;;;2.75;;
16385;SDS011;8302;51.154;4.456;2023-12-07T11:02:43;4.50;;;2.45;;
16385;SDS011;8302;51.154;4.456;2023-12-07T11:05:11;4.68;;;2.80;;
16385;SDS011;8302;51.154;4.456;2023-12-07T11:07:45;4.55;;;3.05;;
16385;SDS011;8302;51.154;4.456;2023-12-07T11:10:17;3.45;;;2.35;;
16385;SDS011;8302;51.154;4.456;2023-12-07T11:12:47;3.17;;;2.63;;
16385;SDS011;8302;51.154;4.456;2023-12-07T11:15:18;4.07;;;2.72;;
16385;SDS011;8302;51.154;4.456;2023-12-07T11:17:52;4.10;;;2.83;;
16385;SDS011;8302;51.154;4.456;2023-12-07T11:20:21;5.38;;;2.70;;
16385;SDS011;8302;51.154;4.456;2023-12-07T11:22:49;5.03;;;1.90;;
16385;SDS011;8302;51.154;4.456;2023-12-07T11:25:18;2.97;;;2.22;;
16385;SDS011;8302;51.154;4.456;2023-12-07T11:27:47;3.38;;;2.40;;
16385;SDS011;8302;51.154;4.456;2023-12-07T11:30:15;4.82;;;2.45;;
16385;SDS011;8302;51.154;4.456;2023-12-07T11:32:44;3.10;;;2.15;;
16385;SDS011;8302;51.154;4.456;2023-12-07T11:35:13;2.97;;;2.00;;
16385;SDS011;8302;51.154;4.456;2023-12-07T11:38:00;3.92;;;2.65;;
16385;SDS011;8302;51.154;4.456;2023-12-07T11:40:29;4.70;;;2.42;;
16385;SDS011;8302;51.154;4.456;2023-12-07T11:42:57;3.33;;;2.13;;
16385;SDS011;8302;51.154;4.456;2023-12-07T11:45:40;3.83;;;2.13;;
16385;SDS011;8302;51.154;4.456;2023-12-07T11:48:13;4.40;;;2.90;;
16385;SDS011;8302;51.154;4.456;2023-12-07T11:50:53;3.95;;;2.60;;
16385;SDS011;8302;51.154;4.456;2023-12-07T11:53:22;4.32;;;2.65;;
16385;SDS011;8302;51.154;4.456;2023-12-07T11:55:52;4.22;;;2.65;;
16385;SDS011;8302;51.154;4.456;2023-12-07T11:58:20;4.07;;;2.72;;
16385;SDS011;8302;51.154;4.456;2023-12-07T12:00:50;4.60;;;2.60;;
16385;SDS011;8302;51.154;4.456;2023-12-07T12:03:20;3.85;;;2.72;;
16385;SDS011;8302;51.154;4.456;2023-12-07T12:05:48;3.20;;;2.25;;
16385;SDS011;8302;51.154;4.456;2023-12-07T12:08:16;5.20;;;2.90;;
16385;SDS011;8302;51.154;4.456;2023-12-07T12:10:44;4.57;;;2.78;;
16385;SDS011;8302;51.154;4.456;2023-12-07T12:13:12;3.53;;;2.40;;
16385;SDS011;8302;51.154;4.456;2023-12-07T12:15:39;3.80;;;2.70;;
16385;SDS011;8302;51.154;4.456;2023-12-07T12:18:07;3.53;;;2.65;;
16385;SDS011;8302;51.154;4.456;2023-12-07T12:20:36;3.03;;;2.20;;
16385;SDS011;8302;51.154;4.456;2023-12-07T12:23:04;3.95;;;2.42;;
16385;SDS011;8302;51.154;4.456;2023-12-07T12:25:32;5.22;;;2.42;;
16385;SDS011;8302;51.154;4.456;2023-12-07T12:28:01;3.35;;;2.60;;
16385;SDS011;8302;51.154;4.456;2023-12-07T12:30:30;4.25;;;2.63;;
16385;SDS011;8302;51.154;4.456;2023-12-07T12:32:58;3.67;;;2.30;;
16385;SDS011;8302;51.154;4.456;2023-12-07T12:35:26;3.97;;;2.40;;
16385;SDS011;8302;51.154;4.456;2023-12-07T12:37:55;3.63;;;2.33;;
16385;SDS011;8302;51.154;4.456;2023-12-07T12:40:23;3.25;;;2.42;;
16385;SDS011;8302;51.154;4.456;2023-12-07T12:42:52;3.47;;;2.33;;
16385;SDS011;8302;51.154;4.456;2023-12-07T12:45:22;2.70;;;2.13;;
16385;SDS011;8302;51.154;4.456;2023-12-07T12:47:51;3.75;;;2.45;;
16385;SDS011;8302;51.154;4.456;2023-12-07T12:50:35;4.40;;;2.80;;
16385;SDS011;8302;51.154;4.456;2023-12-07T12:53:05;3.80;;;1.98;;
16385;SDS011;8302;51.154;4.456;2023-12-07T12:55:33;3.00;;;2.20;;
16385;SDS011;8302;51.154;4.456;2023-12-07T12:58:01;3.92;;;2.25;;
16385;SDS011;8302;51.154;4.456;2023-12-07T13:00:30;3.63;;;2.47;;
16385;SDS011;8302;51.154;4.456;2023-12-07T13:02:59;2.72;;;2.03;;
16385;SDS011;8302;51.154;4.456;2023-12-07T13:05:27;5.07;;;2.40;;
16385;SDS011;8302;51.154;4.456;2023-12-07T13:07:55;3.97;;;2.53;;
16385;SDS011;8302;51.154;4.456;2023-12-07T13:10:41;3.40;;;2.30;;
16385;SDS011;8302;51.154;4.456;2023-12-07T13:13:08;3.20;;;2.60;;
16385;SDS011;8302;51.154;4.456;2023-12-07T13:15:36;4.88;;;2.25;;
16385;SDS011;8302;51.154;4.456;2023-12-07T13:18:04;4.35;;;2.78;;
16385;SDS011;8302;51.154;4.456;2023-12-07T13:20:33;3.75;;;2.53;;
16385;SDS011;8302;51.154;4.456;2023-12-07T13:23:18;3.35;;;2.50;;
16385;SDS011;8302;51.154;4.456;2023-12-07T13:25:49;4.53;;;2.38;;
16385;SDS011;8302;51.154;4.456;2023-12-07T13:28:16;5.55;;;2.65;;
16385;SDS011;8302;51.154;4.456;2023-12-07T13:30:44;4.30;;;2.83;;
16385;SDS011;8302;51.154;4.456;2023-12-07T13:33:12;4.85;;;2.92;;
16385;SDS011;8302;51.154;4.456;2023-12-07T13:35:53;3.83;;;2.50;;
16385;SDS011;8302;51.154;4.456;2023-12-07T13:38:22;5.20;;;2.88;;
16385;SDS011;8302;51.154;4.456;2023-12-07T13:40:51;3.97;;;2.75;;
16385;SDS011;8302;51.154;4.456;2023-12-07T13:43:19;5.45;;;2.95;;
16385;SDS011;8302;51.154;4.456;2023-12-07T13:45:50;4.47;;;2.72;;
16385;SDS011;8302;51.154;4.456;2023-12-07T13:48:18;4.45;;;2.95;;
16385;SDS011;8302;51.154;4.456;2023-12-07T13:50:46;3.25;;;2.42;;
16385;SDS011;8302;51.154;4.456;2023-12-07T13:53:14;3.90;;;2.42;;
16385;SDS011;8302;51.154;4.456;2023-12-07T13:55:41;4.40;;;2.80;;
16385;SDS011;8302;51.154;4.456;2023-12-07T13:58:11;4.30;;;2.85;;
16385;SDS011;8302;51.154;4.456;2023-12-07T14:00:39;4.65;;;2.88;;
16385;SDS011;8302;51.154;4.456;2023-12-07T14:03:11;4.93;;;2.95;;
16385;SDS011;8302;51.154;4.456;2023-12-07T14:05:39;3.22;;;2.53;;
16385;SDS011;8302;51.154;4.456;2023-12-07T14:08:08;3.83;;;2.90;;
16385;SDS011;8302;51.154;4.456;2023-12-07T14:10:35;3.60;;;2.60;;
16385;SDS011;8302;51.154;4.456;2023-12-07T14:13:03;3.28;;;2.63;;
16385;SDS011;8302;51.154;4.456;2023-12-07T14:15:35;3.47;;;2.75;;
16385;SDS011;8302;51.154;4.456;2023-12-07T14:18:11;4.85;;;3.03;;
16385;SDS011;8302;51.154;4.456;2023-12-07T14:20:40;4.78;;;3.10;;
16385;SDS011;8302;51.154;4.456;2023-12-07T14:23:28;3.40;;;2.60;;
16385;SDS011;8302;51.154;4.456;2023-12-07T14:25:56;4.68;;;3.05;;
16385;SDS011;8302;51.154;4.456;2023-12-07T14:28:29;3.28;;;2.72;;
16385;SDS011;8302;51.154;4.456;2023-12-07T14:31:01;3.95;;;3.03;;
16385;SDS011;8302;51.154;4.456;2023-12-07T14:33:30;3.88;;;2.92;;
16385;SDS011;8302;51.154;4.456;2023-12-07T14:35:59;3.95;;;3.10;;
16385;SDS011;8302;51.154;4.456;2023-12-07T14:38:27;5.68;;;3.50;;
16385;SDS011;8302;51.154;4.456;2023-12-07T14:40:55;5.63;;;3.05;;
16385;SDS011;8302;51.154;4.456;2023-12-07T14:43:23;3.47;;;2.95;;
16385;SDS011;8302;51.154;4.456;2023-12-07T14:45:50;4.82;;;3.30;;
16385;SDS011;8302;51.154;4.456;2023-12-07T14:48:20;3.72;;;2.97;;
16385;SDS011;8302;51.154;4.456;2023-12-07T14:50:48;4.03;;;2.80;;
16385;SDS011;8302;51.154;4.456;2023-12-07T14:53:16;4.63;;;3.35;;
16385;SDS011;8302;51.154;4.456;2023-12-07T14:55:44;5.40;;;3.38;;
16385;SDS011;8302;51.154;4.456;2023-12-07T14:58:12;4.93;;;3.45;;
16385;SDS011;8302;51.154;4.456;2023-12-07T15:00:41;4.00;;;3.15;;
16385;SDS011;8302;51.154;4.456;2023-12-07T15:03:11;5.25;;;3.22;;
16385;SDS011;8302;51.154;4.456;2023-12-07T15:05:40;4.38;;;3.03;;
16385;SDS011;8302;51.154;4.456;2023-12-07T15:08:08;4.35;;;3.35;;
16385;SDS011;8302;51.154;4.456;2023-12-07T15:10:37;4.07;;;3.50;;